Time;durP1;ratioP1;P1;durP2;ratioP2;P2;SDS_P1;SDS_P2;PMS_P1;PMS_P2;Temp;Humidity;BMP_temperature;BMP_pressure;BME280_temperature;BME280_humidity;BME280_pressure;Samples;Min_cycle;Max_cycle;Signal;HPM_P1;HPM_P2
2023/01/31 00:00:55;;;;;;;5.05;1.52;;;25.10;99.90;;;;;;5076538;28;20192;-78
2023/01/31 00:03:26;;;;;;;7.97;1.60;;;25.10;99.90;;;;;;5051636;28;20387;-79
2023/01/31 00:05:57;;;;;;;5.18;1.40;;;25.20;99.90;;;;;;5062657;28;20306;-80
2023/01/31 00:08:28;;;;;;;3.33;1.20;;;25.10;99.90;;;;;;5059307;28;20219;-80
2023/01/31 00:11:02;;;;;;;4.05;1.45;;;25.00;99.90;;;;;;5068274;28;20219;-80
2023/01/31 00:13:33;;;;;;;4.82;1.60;;;25.00;99.90;;;;;;5070619;28;20222;-79
2023/01/31 00:16:05;;;;;;;5.38;1.85;;;25.00;99.90;;;;;;5073102;28;20196;-80
2023/01/31 00:18:36;;;;;;;6.00;1.65;;;25.10;99.90;;;;;;5074032;28;20562;-79
2023/01/31 00:21:12;;;;;;;8.18;2.17;;;25.00;99.90;;;;;;5071175;28;20227;-80
2023/01/31 00:23:44;;;;;;;6.70;1.90;;;25.00;99.90;;;;;;5072236;28;20203;-79
2023/01/31 00:26:19;;;;;;;4.65;1.25;;;25.00;99.90;;;;;;5072688;28;20697;-79
2023/01/31 00:28:51;;;;;;;3.72;1.10;;;25.10;99.90;;;;;;5072349;28;20681;-79
2023/01/31 00:31:23;;;;;;;4.22;1.30;;;25.00;99.90;;;;;;5071732;28;20193;-80
2023/01/31 00:33:56;;;;;;;3.70;1.42;;;25.00;99.90;;;;;;5073363;28;20196;-80
2023/01/31 00:36:28;;;;;;;3.28;1.23;;;24.90;99.90;;;;;;5072672;28;20204;-80
2023/01/31 00:39:01;;;;;;;4.30;1.33;;;24.90;99.90;;;;;;5062068;28;20197;-80
2023/01/31 00:41:35;;;;;;;9.40;1.63;;;24.90;99.90;;;;;;5064884;28;20746;-79
2023/01/31 00:44:07;;;;;;;6.43;1.60;;;24.90;99.90;;;;;;5069755;28;20196;-79
2023/01/31 00:46:38;;;;;;;7.50;1.45;;;24.80;99.90;;;;;;5063097;28;21075;-78
2023/01/31 00:49:09;;;;;;;5.68;1.80;;;24.80;99.90;;;;;;5051401;28;20743;-79
2023/01/31 00:51:40;;;;;;;5.80;1.50;;;24.70;99.90;;;;;;5052593;28;20563;-79
2023/01/31 00:54:11;;;;;;;6.72;1.83;;;24.60;99.90;;;;;;5044930;28;20196;-79
2023/01/31 00:56:44;;;;;;;4.55;1.60;;;24.60;99.90;;;;;;5049800;28;20674;-79
2023/01/31 00:59:16;;;;;;;5.50;1.60;;;24.60;99.90;;;;;;5046638;28;20343;-80
2023/01/31 01:01:47;;;;;;;3.53;1.38;;;24.50;99.90;;;;;;5058816;28;20176;-80
2023/01/31 01:04:18;;;;;;;6.93;1.35;;;24.50;99.90;;;;;;5047534;28;20229;-81
2023/01/31 01:06:49;;;;;;;4.00;1.17;;;24.60;99.90;;;;;;5048987;28;20245;-81
2023/01/31 01:09:21;;;;;;;6.50;1.60;;;24.60;99.90;;;;;;5045406;28;20223;-80
2023/01/31 01:11:54;;;;;;;4.85;1.45;;;24.60;99.90;;;;;;5047304;28;21014;-80
2023/01/31 01:14:25;;;;;;;4.75;1.75;;;24.60;99.90;;;;;;5047588;28;20203;-80
2023/01/31 01:16:57;;;;;;;6.95;1.73;;;24.60;99.90;;;;;;5044946;28;20203;-80
2023/01/31 01:19:28;;;;;;;5.43;1.42;;;24.50;99.90;;;;;;5044524;28;20252;-80
2023/01/31 01:22:00;;;;;;;6.00;1.48;;;24.60;99.90;;;;;;5045935;28;20617;-81
2023/01/31 01:24:30;;;;;;;3.80;1.48;;;24.60;99.90;;;;;;5043045;28;20192;-81
2023/01/31 01:27:03;;;;;;;2.78;1.20;;;24.50;99.90;;;;;;5044278;28;21189;-81
2023/01/31 01:29:34;;;;;;;3.67;1.55;;;24.50;99.90;;;;;;5045023;28;20204;-81
2023/01/31 01:32:06;;;;;;;3.00;1.20;;;24.50;99.90;;;;;;5048657;28;20278;-81
2023/01/31 01:34:38;;;;;;;3.40;1.38;;;24.50;99.90;;;;;;5046195;28;20217;-81
2023/01/31 01:37:18;;;;;;;4.00;1.40;;;24.50;99.90;;;;;;5046215;28;20207;-81
2023/01/31 01:39:50;;;;;;;4.28;1.35;;;24.50;99.90;;;;;;5047315;28;21586;-81
2023/01/31 01:42:25;;;;;;;2.22;1.30;;;24.50;99.90;;;;;;5047636;28;20198;-81
2023/01/31 01:44:58;;;;;;;3.80;1.02;;;24.50;99.90;;;;;;5046276;28;20210;-81
2023/01/31 01:47:39;;;;;;;2.63;1.08;;;24.50;99.90;;;;;;5048815;28;20279;-81
2023/01/31 01:50:14;;;;;;;4.45;1.23;;;24.50;99.90;;;;;;5046462;28;20199;-81
2023/01/31 01:52:50;;;;;;;3.08;0.93;;;24.60;99.90;;;;;;5046956;28;20206;-81
2023/01/31 01:55:25;;;;;;;4.00;1.20;;;24.60;99.90;;;;;;5046176;28;20196;-80
2023/01/31 01:58:09;;;;;;;5.55;1.20;;;24.70;99.90;;;;;;5050471;28;20200;-80
2023/01/31 02:00:41;;;;;;;2.90;1.30;;;24.80;99.90;;;;;;5050092;28;20655;-79
2023/01/31 02:03:12;;;;;;;4.28;1.30;;;24.80;99.90;;;;;;5060610;28;20575;-80
2023/01/31 02:05:47;;;;;;;5.30;1.58;;;24.90;99.90;;;;;;5045962;28;20768;-80
2023/01/31 02:08:19;;;;;;;6.70;1.60;;;25.00;99.90;;;;;;5047091;28;22236;-81
2023/01/31 02:10:55;;;;;;;6.00;1.83;;;25.10;99.90;;;;;;5045745;28;20215;-80
2023/01/31 02:13:29;;;;;;;4.25;1.63;;;25.20;99.90;;;;;;5049194;28;20970;-81
2023/01/31 02:16:00;;;;;;;7.07;1.75;;;25.20;99.90;;;;;;5056272;28;20200;-80
2023/01/31 02:18:31;;;;;;;4.60;1.40;;;25.30;99.90;;;;;;5056224;28;20688;-80
2023/01/31 02:21:45;;;;;;;2.15;1.30;;;25.40;99.90;;;;;;5058532;28;20232;-80
2023/01/31 02:24:59;;;;;;;4.97;1.40;;;25.40;99.90;;;;;;4995500;28;20580;-80
2023/01/31 02:27:55;;;;;;;3.00;1.17;;;25.60;99.90;;;;;;5018715;28;20227;-80
2023/01/31 02:30:50;;;;;;;4.80;1.42;;;25.60;99.90;;;;;;5046662;28;20203;-80
2023/01/31 02:33:28;;;;;;;5.85;1.70;;;25.60;99.90;;;;;;5033555;28;20204;-80
2023/01/31 02:36:09;;;;;;;3.30;1.40;;;25.60;99.90;;;;;;5045201;28;20200;-80
2023/01/31 02:38:52;;;;;;;4.78;1.30;;;25.60;99.90;;;;;;5046468;28;20580;-80
2023/01/31 02:41:30;;;;;;;2.75;1.40;;;25.60;99.90;;;;;;5047954;28;20199;-79
2023/01/31 02:46:59;;;;;;;4.05;1.30;;;25.50;99.90;;;;;;5053835;28;20292;-80
2023/01/31 02:49:39;;;;;;;3.78;1.30;;;25.60;99.90;;;;;;5045984;28;20207;-80
2023/01/31 02:52:21;;;;;;;4.80;1.58;;;25.70;99.90;;;;;;5046416;28;20217;-81
2023/01/31 02:57:48;;;;;;;3.22;1.38;;;26.00;99.90;;;;;;5050976;28;20288;-80
2023/01/31 03:00:20;;;;;;;2.83;1.10;;;26.20;99.90;;;;;;5048125;28;20200;-79
2023/01/31 03:02:52;;;;;;;3.75;1.58;;;26.20;99.90;;;;;;5058553;28;20543;-79
2023/01/31 03:05:26;;;;;;;3.00;1.30;;;26.20;99.90;;;;;;5043678;28;20281;-80
2023/01/31 03:07:59;;;;;;;1.85;1.00;;;26.20;99.90;;;;;;5045535;28;20222;-80
2023/01/31 03:10:49;;;;;;;4.20;1.42;;;26.20;99.90;;;;;;5045399;28;20230;-80
2023/01/31 03:13:44;;;;;;;2.28;0.95;;;26.30;99.90;;;;;;5046344;28;20669;-80
2023/01/31 03:19:16;;;;;;;2.60;1.20;;;26.20;99.90;;;;;;5045485;28;20211;-80
2023/01/31 03:21:54;;;;;;;5.32;1.20;;;26.40;99.90;;;;;;5046289;28;20238;-79
2023/01/31 03:24:29;;;;;;;3.20;1.00;;;26.40;99.90;;;;;;5045423;28;20201;-81
2023/01/31 03:27:02;;;;;;;2.75;1.00;;;26.60;99.90;;;;;;5045811;28;20265;-80
2023/01/31 03:29:37;;;;;;;2.20;0.60;;;26.70;99.90;;;;;;5043014;28;20211;-79
2023/01/31 03:32:12;;;;;;;1.92;0.88;;;26.80;99.90;;;;;;5049388;28;20359;-78
2023/01/31 03:34:43;;;;;;;3.20;0.93;;;26.90;99.90;;;;;;5044989;28;21034;-79
2023/01/31 03:37:26;;;;;;;1.17;0.88;;;27.10;99.90;;;;;;5045045;28;20575;-79
2023/01/31 03:40:02;;;;;;;3.05;1.05;;;27.20;99.90;;;;;;5048128;28;20207;-79
2023/01/31 03:42:41;;;;;;;3.08;1.05;;;27.30;99.90;;;;;;5044821;28;20210;-79
2023/01/31 03:45:20;;;;;;;3.33;1.13;;;27.30;99.90;;;;;;5048749;28;22501;-80
2023/01/31 03:47:53;;;;;;;3.67;1.50;;;27.30;99.90;;;;;;5046353;28;20219;-80
2023/01/31 03:50:28;;;;;;;6.28;1.80;;;27.20;99.90;;;;;;5050545;28;20200;-80
2023/01/31 03:53:07;;;;;;;6.85;2.10;;;27.20;99.90;;;;;;5053435;28;20195;-80
2023/01/31 03:55:44;;;;;;;4.85;1.75;;;27.20;99.90;;;;;;5049214;28;20200;-80
2023/01/31 03:58:18;;;;;;;5.68;1.75;;;27.30;99.90;;;;;;5048526;28;20200;-80
2023/01/31 04:00:51;;;;;;;7.32;1.90;;;27.20;99.90;;;;;;5048477;28;20311;-80
2023/01/31 04:03:26;;;;;;;6.15;1.88;;;27.30;99.90;;;;;;5062522;28;20204;-79
2023/01/31 04:06:00;;;;;;;4.90;1.50;;;27.30;99.90;;;;;;5050151;28;20203;-79
2023/01/31 04:08:35;;;;;;;5.28;1.65;;;27.40;99.90;;;;;;5055440;28;20670;-79
2023/01/31 04:11:10;;;;;;;4.70;1.42;;;27.40;99.90;;;;;;5054362;28;20223;-79
2023/01/31 04:13:44;;;;;;;4.80;1.48;;;27.40;99.90;;;;;;5052567;28;20226;-80
2023/01/31 04:16:15;;;;;;;4.70;1.48;;;27.60;99.90;;;;;;5054606;28;20207;-79
2023/01/31 04:18:46;;;;;;;8.80;1.73;;;27.60;99.90;;;;;;5056759;28;20222;-80
2023/01/31 04:21:17;;;;;;;5.57;1.75;;;27.60;99.90;;;;;;5053670;28;20249;-79
2023/01/31 04:23:51;;;;;;;8.02;1.85;;;27.60;99.90;;;;;;5052525;28;20203;-80
2023/01/31 04:26:22;;;;;;;4.35;1.48;;;27.60;99.90;;;;;;5051340;28;20701;-80
2023/01/31 04:28:53;;;;;;;4.55;1.50;;;27.60;99.90;;;;;;5054295;28;20237;-80
2023/01/31 04:31:24;;;;;;;5.88;1.40;;;27.50;99.90;;;;;;5057440;28;20792;-80
2023/01/31 04:34:05;;;;;;;5.28;1.45;;;27.70;99.90;;;;;;5052445;28;20207;-80
2023/01/31 04:36:37;;;;;;;5.60;1.50;;;27.70;99.90;;;;;;5051666;28;20200;-80
2023/01/31 04:39:13;;;;;;;4.93;1.40;;;27.90;99.90;;;;;;5049717;28;20574;-80
2023/01/31 04:41:44;;;;;;;5.10;1.83;;;28.00;99.90;;;;;;5056832;28;20196;-79
2023/01/31 04:44:15;;;;;;;5.22;1.70;;;28.00;99.90;;;;;;5071316;28;20192;-79
2023/01/31 04:46:47;;;;;;;5.07;1.58;;;28.00;99.90;;;;;;5053507;28;20295;-82
2023/01/31 04:49:18;;;;;;;5.05;1.80;;;28.00;99.90;;;;;;5046731;28;20235;-78
2023/01/31 04:51:52;;;;;;;4.88;1.40;;;27.90;99.90;;;;;;5047325;28;20196;-79
2023/01/31 04:54:24;;;;;;;6.03;1.73;;;28.00;99.90;;;;;;5048117;28;20192;-79
2023/01/31 04:56:55;;;;;;;6.28;1.80;;;27.90;99.90;;;;;;5050729;28;20207;-79
2023/01/31 04:59:26;;;;;;;4.95;1.60;;;27.70;99.90;;;;;;5056241;28;20200;-78
2023/01/31 05:01:59;;;;;;;8.18;1.80;;;27.60;99.90;;;;;;5054254;28;20191;-78
2023/01/31 05:04:30;;;;;;;8.68;2.00;;;27.70;99.90;;;;;;5059876;28;20200;-78
2023/01/31 05:07:01;;;;;;;6.07;2.00;;;27.70;99.90;;;;;;5056481;28;20287;-79
2023/01/31 05:09:34;;;;;;;7.75;2.00;;;27.50;99.90;;;;;;5051484;28;20248;-79
2023/01/31 05:12:08;;;;;;;7.60;1.80;;;27.50;99.90;;;;;;5050408;28;20203;-80
2023/01/31 05:14:39;;;;;;;8.43;1.85;;;27.50;99.90;;;;;;5048001;28;20561;-79
2023/01/31 05:17:09;;;;;;;9.38;2.20;;;27.30;99.90;;;;;;5049306;28;20196;-79
2023/01/31 05:19:47;;;;;;;8.15;2.08;;;27.40;99.90;;;;;;5048821;28;20214;-80
2023/01/31 05:22:21;;;;;;;7.80;2.15;;;27.40;99.90;;;;;;5052934;28;20210;-79
2023/01/31 05:24:54;;;;;;;7.57;2.03;;;27.30;99.90;;;;;;5049367;28;20804;-79
2023/01/31 05:27:25;;;;;;;9.82;2.17;;;27.30;99.90;;;;;;5052247;28;20204;-79
2023/01/31 05:29:56;;;;;;;12.23;2.67;;;27.40;99.90;;;;;;5047863;28;20234;-80
2023/01/31 05:32:27;;;;;;;7.05;1.90;;;27.40;99.90;;;;;;5053271;28;22224;-80
2023/01/31 05:35:01;;;;;;;9.13;2.17;;;27.40;99.90;;;;;;5049264;28;20200;-80
2023/01/31 05:37:32;;;;;;;5.95;1.77;;;27.60;99.90;;;;;;5051553;28;20214;-80
2023/01/31 05:40:06;;;;;;;9.70;1.95;;;27.60;99.90;;;;;;5051486;28;20200;-79
2023/01/31 05:42:37;;;;;;;5.72;1.70;;;27.60;99.90;;;;;;5052228;28;20805;-79
2023/01/31 05:45:08;;;;;;;10.13;1.88;;;27.80;99.90;;;;;;5046890;28;20610;-79
2023/01/31 05:47:40;;;;;;;8.13;1.67;;;28.00;99.90;;;;;;5047982;28;20224;-79
2023/01/31 05:50:12;;;;;;;12.52;2.08;;;28.30;99.90;;;;;;5057670;28;20265;-78
2023/01/31 05:52:45;;;;;;;8.77;2.03;;;28.30;99.90;;;;;;5053950;28;20281;-79
2023/01/31 05:55:18;;;;;;;9.63;2.10;;;28.30;99.90;;;;;;5056655;28;20206;-79
2023/01/31 05:57:52;;;;;;;7.75;1.90;;;28.20;99.90;;;;;;5047126;28;20199;-79
2023/01/31 06:00:23;;;;;;;8.93;2.10;;;28.00;99.90;;;;;;5046360;28;20731;-78
2023/01/31 06:02:54;;;;;;;10.65;1.90;;;28.20;99.90;;;;;;5047222;28;20202;-80
2023/01/31 06:05:25;;;;;;;10.57;2.28;;;28.30;99.90;;;;;;5049249;28;20689;-78
2023/01/31 06:07:56;;;;;;;8.50;2.10;;;28.60;99.90;;;;;;5055260;28;20259;-79
2023/01/31 06:10:29;;;;;;;8.30;2.20;;;28.90;99.90;;;;;;5046029;28;20211;-79
2023/01/31 06:13:01;;;;;;;7.72;1.98;;;29.10;99.90;;;;;;5046480;28;20667;-79
2023/01/31 06:15:32;;;;;;;6.07;1.70;;;29.20;99.90;;;;;;5045706;28;20207;-79
2023/01/31 06:18:03;;;;;;;6.72;1.80;;;29.20;99.90;;;;;;5047485;28;20551;-80
2023/01/31 06:20:35;;;;;;;6.65;2.10;;;29.50;99.90;;;;;;5045820;28;20232;-79
2023/01/31 06:23:06;;;;;;;10.80;1.85;;;29.80;99.90;;;;;;5045358;28;20196;-80
2023/01/31 06:25:39;;;;;;;7.93;1.95;;;30.20;99.90;;;;;;5046723;28;20207;-79
2023/01/31 06:28:10;;;;;;;8.55;2.00;;;30.60;99.90;;;;;;5048608;28;20829;-79
2023/01/31 06:30:41;;;;;;;7.47;2.05;;;30.90;99.90;;;;;;5049706;28;20204;-80
2023/01/31 06:33:12;;;;;;;6.63;2.05;;;31.30;99.90;;;;;;5050952;28;20681;-80
2023/01/31 06:35:43;;;;;;;7.20;1.90;;;31.70;99.90;;;;;;5051590;28;20286;-79
2023/01/31 06:38:15;;;;;;;6.57;2.05;;;32.10;99.90;;;;;;5050596;28;20208;-80
2023/01/31 06:40:48;;;;;;;10.23;2.05;;;32.00;99.90;;;;;;5050262;28;20564;-79
2023/01/31 06:43:19;;;;;;;6.47;2.25;;;31.80;99.90;;;;;;5052650;28;20211;-80
2023/01/31 06:45:50;;;;;;;7.32;2.20;;;32.10;99.90;;;;;;5058986;28;20326;-80
2023/01/31 06:48:21;;;;;;;11.52;2.53;;;32.20;99.90;;;;;;5050095;28;20219;-79
2023/01/31 06:50:52;;;;;;;7.13;2.08;;;32.60;99.90;;;;;;5049510;28;20196;-80
2023/01/31 06:53:23;;;;;;;8.40;2.05;;;32.50;99.90;;;;;;5049741;28;20571;-81
2023/01/31 06:55:56;;;;;;;7.80;2.28;;;32.60;99.90;;;;;;5050586;28;20195;-83
2023/01/31 06:58:27;;;;;;;8.00;1.88;;;32.20;99.90;;;;;;5051055;28;20204;-83
2023/01/31 07:00:59;;;;;;;10.88;1.90;;;32.30;99.90;;;;;;5052162;28;20237;-83
2023/01/31 07:03:30;;;;;;;9.30;2.30;;;32.30;99.90;;;;;;5049800;28;22372;-84
2023/01/31 07:06:01;;;;;;;7.97;2.40;;;32.50;99.90;;;;;;5050763;28;20269;-83
2023/01/31 07:08:33;;;;;;;10.80;2.53;;;32.40;99.90;;;;;;5062266;28;20220;-83
2023/01/31 07:11:09;;;;;;;7.53;2.40;;;32.60;99.90;;;;;;5053014;28;20216;-83
2023/01/31 07:13:39;;;;;;;7.55;2.17;;;32.70;99.90;;;;;;5051531;28;20211;-83
2023/01/31 07:16:11;;;;;;;9.00;2.00;;;32.90;99.90;;;;;;5049827;28;20204;-82
2023/01/31 07:18:42;;;;;;;7.60;2.20;;;33.10;99.90;;;;;;5050446;28;20204;-82
2023/01/31 07:21:12;;;;;;;9.85;2.20;;;33.40;99.90;;;;;;5051588;28;20232;-82
2023/01/31 07:23:45;;;;;;;8.68;1.90;;;33.70;99.90;;;;;;5049966;28;20193;-81
2023/01/31 07:26:18;;;;;;;6.10;1.75;;;33.60;99.90;;;;;;5049732;28;20571;-82
2023/01/31 07:28:51;;;;;;;7.47;1.83;;;33.60;99.90;;;;;;5046439;28;20722;-83
2023/01/31 07:31:22;;;;;;;7.85;2.00;;;33.20;99.90;;;;;;5052358;28;20642;-81
2023/01/31 07:33:53;;;;;;;8.45;2.08;;;33.10;99.90;;;;;;5056030;28;21510;-82
2023/01/31 07:36:25;;;;;;;11.63;2.40;;;33.50;99.90;;;;;;5056989;28;20717;-83
2023/01/31 07:38:57;;;;;;;9.20;2.17;;;33.70;99.90;;;;;;5052687;28;20228;-83
2023/01/31 07:41:31;;;;;;;9.23;2.00;;;33.70;99.00;;;;;;5065944;28;20199;-83
2023/01/31 07:44:02;;;;;;;7.28;1.80;;;33.50;99.60;;;;;;5048249;28;20200;-83
2023/01/31 07:46:34;;;;;;;5.32;2.05;;;33.60;98.30;;;;;;5049483;28;20199;-82
2023/01/31 07:49:05;;;;;;;4.05;1.40;;;33.10;99.90;;;;;;5047363;28;20232;-83
2023/01/31 07:51:37;;;;;;;6.10;2.08;;;33.20;98.80;;;;;;5048927;28;20210;-83
2023/01/31 07:54:08;;;;;;;6.25;1.90;;;33.30;98.70;;;;;;5048192;28;20207;-83
2023/01/31 07:56:41;;;;;;;5.63;1.80;;;33.30;97.00;;;;;;5047293;28;20200;-82
2023/01/31 07:59:12;;;;;;;4.97;1.75;;;33.10;98.20;;;;;;5046301;28;20200;-83
2023/01/31 08:04:31;;;;;;;6.60;1.90;;;32.60;99.90;;;;;;5048486;28;21036;-83
2023/01/31 08:07:05;;;;;;;7.13;1.60;;;32.30;99.90;;;;;;5044679;28;20220;-82
2023/01/31 08:09:37;;;;;;;7.10;1.52;;;31.80;99.90;;;;;;5050406;28;20235;-82
2023/01/31 08:12:11;;;;;;;7.68;1.67;;;31.10;99.90;;;;;;5061391;28;20196;-82
2023/01/31 08:14:42;;;;;;;4.78;1.75;;;30.40;99.90;;;;;;5052136;28;20200;-82
2023/01/31 08:17:13;;;;;;;5.10;1.60;;;29.80;99.90;;;;;;5046892;28;20196;-83
2023/01/31 08:19:44;;;;;;;7.22;1.63;;;29.20;99.90;;;;;;5047025;28;20278;-82
2023/01/31 08:22:16;;;;;;;6.07;2.00;;;28.80;99.90;;;;;;5049637;28;20238;-82
2023/01/31 08:24:47;;;;;;;7.28;2.45;;;28.50;99.90;;;;;;5044649;28;20204;-81
2023/01/31 08:27:20;;;;;;;8.48;1.95;;;28.20;99.90;;;;;;5049112;28;20199;-83
2023/01/31 08:29:51;;;;;;;6.47;1.90;;;27.90;99.90;;;;;;5050018;28;20227;-81
2023/01/31 08:32:21;;;;;;;6.38;1.90;;;27.60;99.90;;;;;;5047150;28;20196;-80
2023/01/31 08:34:53;;;;;;;8.60;1.95;;;27.40;99.90;;;;;;5047311;28;20280;-80
2023/01/31 08:37:23;;;;;;;7.63;1.60;;;27.10;99.90;;;;;;5048820;28;21914;-82
2023/01/31 08:39:54;;;;;;;6.95;1.70;;;26.90;99.90;;;;;;5052092;28;20200;-82
2023/01/31 08:42:27;;;;;;;6.13;1.70;;;26.70;99.90;;;;;;5048040;28;20204;-82
2023/01/31 08:44:58;;;;;;;6.20;1.50;;;26.60;99.90;;;;;;5052076;28;20202;-81
2023/01/31 08:47:29;;;;;;;6.60;1.35;;;26.40;99.90;;;;;;5064101;28;20206;-79
2023/01/31 08:50:00;;;;;;;7.25;1.83;;;26.30;99.90;;;;;;5049182;28;20250;-81
2023/01/31 08:52:34;;;;;;;10.82;1.95;;;26.10;99.90;;;;;;5049718;28;20203;-81
2023/01/31 08:55:05;;;;;;;9.32;1.80;;;26.10;99.90;;;;;;5048547;28;20299;-82
2023/01/31 08:57:38;;;;;;;7.20;1.70;;;26.00;99.90;;;;;;5050664;28;20798;-82
2023/01/31 09:00:10;;;;;;;7.45;1.80;;;26.00;99.90;;;;;;5048282;28;20203;-83
2023/01/31 09:02:41;;;;;;;5.80;1.45;;;25.90;99.90;;;;;;5055022;28;20192;-82
2023/01/31 09:05:12;;;;;;;7.65;2.10;;;25.70;99.90;;;;;;5049535;28;20199;-81
2023/01/31 09:07:43;;;;;;;7.68;1.80;;;25.60;99.90;;;;;;5048536;28;21086;-83
2023/01/31 09:10:14;;;;;;;6.75;1.63;;;25.50;99.90;;;;;;5049909;28;20230;-83
2023/01/31 09:12:47;;;;;;;6.32;1.35;;;25.50;99.90;;;;;;5057158;28;20562;-83
2023/01/31 09:15:18;;;;;;;10.75;3.35;;;25.40;99.90;;;;;;5071302;28;20196;-83
2023/01/31 09:17:49;;;;;;;5.18;1.30;;;25.20;99.90;;;;;;5055966;28;20227;-83
2023/01/31 09:20:20;;;;;;;8.23;1.77;;;25.10;99.90;;;;;;5053723;28;20243;-81
2023/01/31 09:22:51;;;;;;;5.38;1.98;;;25.10;99.90;;;;;;5049224;28;20199;-80
2023/01/31 09:25:23;;;;;;;5.20;1.50;;;25.10;99.90;;;;;;5049573;28;20192;-82
2023/01/31 09:27:57;;;;;;;4.25;1.38;;;25.10;99.90;;;;;;5049644;28;20211;-82
2023/01/31 09:30:28;;;;;;;5.97;1.55;;;25.10;99.90;;;;;;5049881;28;20223;-82
2023/01/31 09:33:01;;;;;;;6.57;1.83;;;25.00;99.90;;;;;;5049048;28;20215;-82
2023/01/31 09:35:35;;;;;;;7.40;1.45;;;25.00;99.90;;;;;;5051895;28;20192;-82
2023/01/31 09:38:09;;;;;;;8.05;2.05;;;25.00;99.90;;;;;;5051677;28;20211;-82
2023/01/31 09:40:42;;;;;;;5.60;2.00;;;25.00;99.90;;;;;;5056697;28;20203;-83
2023/01/31 09:43:17;;;;;;;6.07;1.40;;;24.90;99.90;;;;;;5050351;28;20227;-83
2023/01/31 09:45:50;;;;;;;3.83;1.38;;;24.80;99.90;;;;;;5053085;28;20200;-83
2023/01/31 09:48:25;;;;;;;8.07;3.33;;;24.80;99.90;;;;;;5056238;28;20698;-84
2023/01/31 09:50:57;;;;;;;11.20;3.13;;;24.90;99.90;;;;;;5055224;28;20223;-83
2023/01/31 09:53:34;;;;;;;8.55;1.50;;;24.80;99.90;;;;;;5053679;28;20192;-83
2023/01/31 09:56:24;;;;;;;8.38;2.40;;;24.70;99.90;;;;;;5061533;28;20191;-82
2023/01/31 09:59:14;;;;;;;6.15;1.70;;;24.70;99.90;;;;;;5063956;28;20197;-82
2023/01/31 10:01:54;;;;;;;8.07;1.85;;;24.60;99.90;;;;;;5065996;28;20652;-82
2023/01/31 10:04:41;;;;;;;5.53;1.60;;;24.60;99.90;;;;;;5066775;28;20195;-82
2023/01/31 10:07:20;;;;;;;5.90;1.48;;;24.60;99.90;;;;;;5057149;28;20189;-81
2023/01/31 10:09:57;;;;;;;4.18;1.33;;;24.60;99.90;;;;;;5053151;28;20585;-80
2023/01/31 10:12:32;;;;;;;5.28;1.50;;;24.60;99.90;;;;;;5069222;28;20295;-80
2023/01/31 10:15:08;;;;;;;5.93;1.60;;;24.60;99.90;;;;;;5078547;28;20208;-79
2023/01/31 10:17:43;;;;;;;5.63;1.42;;;24.60;99.90;;;;;;5065901;28;20226;-80
2023/01/31 10:20:24;;;;;;;5.93;1.25;;;24.60;99.90;;;;;;5077658;28;20282;-79
2023/01/31 10:23:01;;;;;;;4.85;1.05;;;24.60;99.90;;;;;;5073512;28;20322;-79
2023/01/31 10:25:36;;;;;;;4.15;1.00;;;24.70;99.90;;;;;;5059944;28;20196;-80
2023/01/31 10:28:14;;;;;;;4.50;1.20;;;24.60;99.90;;;;;;5052781;28;20405;-79
2023/01/31 10:30:51;;;;;;;5.75;1.55;;;24.70;99.90;;;;;;5057499;28;20220;-80
2023/01/31 10:33:31;;;;;;;6.20;1.30;;;24.60;99.90;;;;;;5058070;28;20204;-82
2023/01/31 10:36:08;;;;;;;4.40;1.23;;;24.60;99.90;;;;;;5083382;28;20188;-81
2023/01/31 10:38:49;;;;;;;4.80;1.45;;;24.60;99.90;;;;;;5086095;28;20200;-81
2023/01/31 10:41:31;;;;;;;5.28;1.40;;;24.50;99.90;;;;;;5083725;28;20192;-80
2023/01/31 10:44:08;;;;;;;6.95;1.40;;;24.50;99.90;;;;;;5078802;28;20210;-79
2023/01/31 10:46:42;;;;;;;7.28;1.23;;;24.40;99.90;;;;;;5077233;28;20205;-80
2023/01/31 10:49:13;;;;;;;9.82;2.10;;;24.50;99.90;;;;;;5074933;28;20238;-80
2023/01/31 10:52:10;;;;;;;5.28;1.20;;;24.40;99.90;;;;;;5069247;28;20608;-79
2023/01/31 10:54:55;;;;;;;5.63;1.10;;;24.40;99.90;;;;;;5070908;28;20198;-80
2023/01/31 10:57:28;;;;;;;5.85;1.23;;;24.40;99.90;;;;;;5077553;28;20238;-81
2023/01/31 11:00:01;;;;;;;5.80;1.50;;;24.40;99.90;;;;;;5070850;28;20206;-82
2023/01/31 11:02:34;;;;;;;10.35;1.50;;;24.50;99.90;;;;;;5078074;28;20223;-82
2023/01/31 11:05:08;;;;;;;7.30;1.40;;;24.40;99.90;;;;;;5057842;28;20192;-80
2023/01/31 11:07:40;;;;;;;6.57;1.40;;;24.30;99.90;;;;;;5061618;28;20275;-81
2023/01/31 11:10:30;;;;;;;7.43;1.45;;;24.30;99.90;;;;;;5070595;28;20227;-80
2023/01/31 11:13:03;;;;;;;8.77;1.40;;;24.40;99.90;;;;;;5061893;28;20288;-80
2023/01/31 11:15:40;;;;;;;4.03;1.00;;;24.40;99.90;;;;;;5065859;28;20196;-79
2023/01/31 11:18:18;;;;;;;9.68;1.70;;;24.50;99.90;;;;;;5056782;28;20204;-77
2023/01/31 11:20:52;;;;;;;9.07;1.60;;;24.50;99.90;;;;;;5062194;28;20259;-79
2023/01/31 11:23:27;;;;;;;9.82;1.85;;;24.30;99.90;;;;;;5065242;28;20197;-79
2023/01/31 11:25:59;;;;;;;8.68;1.23;;;24.40;99.90;;;;;;5070497;28;20295;-79
2023/01/31 11:28:37;;;;;;;5.47;1.08;;;24.30;99.90;;;;;;5061037;28;20239;-79
2023/01/31 11:31:20;;;;;;;7.05;1.10;;;24.30;99.90;;;;;;5058451;28;20227;-80
2023/01/31 11:33:59;;;;;;;7.15;1.33;;;24.30;99.90;;;;;;5077178;28;20206;-80
2023/01/31 11:36:47;;;;;;;4.63;1.17;;;24.30;99.90;;;;;;5073115;28;20195;-82
2023/01/31 11:39:37;;;;;;;5.13;1.33;;;24.40;99.90;;;;;;5071952;28;20195;-80
2023/01/31 11:42:15;;;;;;;3.80;0.85;;;24.40;99.90;;;;;;5070327;28;20196;-79
2023/01/31 11:45:01;;;;;;;5.38;0.95;;;24.30;99.90;;;;;;5073642;28;20230;-81
2023/01/31 11:47:44;;;;;;;7.28;1.60;;;24.30;99.90;;;;;;5067756;28;20200;-80
2023/01/31 11:50:27;;;;;;;3.80;0.90;;;24.30;99.90;;;;;;5059579;28;20678;-80
2023/01/31 11:52:59;;;;;;;6.53;1.50;;;24.40;99.90;;;;;;5053522;28;20656;-81
2023/01/31 11:55:37;;;;;;;7.85;1.35;;;24.40;99.90;;;;;;5071209;28;20210;-80
2023/01/31 11:58:17;;;;;;;5.03;1.00;;;24.30;99.90;;;;;;5070954;28;20211;-81
2023/01/31 12:00:57;;;;;;;6.03;1.40;;;24.30;99.90;;;;;;5057460;28;20218;-81
2023/01/31 12:03:28;;;;;;;6.20;1.30;;;24.30;99.90;;;;;;5073458;28;20199;-80
2023/01/31 12:06:06;;;;;;;3.25;1.00;;;24.20;99.90;;;;;;5068250;28;20283;-80
2023/01/31 12:08:39;;;;;;;5.55;1.10;;;24.30;99.90;;;;;;5069426;28;22235;-80
2023/01/31 12:11:28;;;;;;;8.90;1.40;;;24.30;99.90;;;;;;5073184;28;20223;-80
2023/01/31 12:14:11;;;;;;;8.63;1.30;;;24.20;99.90;;;;;;5077661;28;20206;-80
2023/01/31 12:16:44;;;;;;;5.72;1.33;;;24.20;99.90;;;;;;5059680;28;20287;-79
2023/01/31 12:19:27;;;;;;;6.32;1.40;;;24.10;99.90;;;;;;5057222;28;20201;-79
2023/01/31 12:22:07;;;;;;;5.25;1.20;;;24.10;99.90;;;;;;5076927;28;20219;-80
2023/01/31 12:24:49;;;;;;;6.57;1.40;;;24.10;99.90;;;;;;5056138;28;20197;-81
2023/01/31 12:27:29;;;;;;;4.45;1.00;;;24.10;99.90;;;;;;5071847;28;20196;-80
2023/01/31 12:30:23;;;;;;;3.88;1.13;;;24.00;99.90;;;;;;5072027;28;20221;-80
2023/01/31 12:33:13;;;;;;;4.72;1.13;;;24.00;99.90;;;;;;5057227;28;20192;-80
2023/01/31 12:35:52;;;;;;;10.20;1.17;;;23.90;99.90;;;;;;5072927;28;20200;-80
2023/01/31 12:38:43;;;;;;;4.50;1.10;;;24.00;99.90;;;;;;5072192;28;20191;-80
2023/01/31 12:41:24;;;;;;;3.10;1.02;;;23.90;99.90;;;;;;5074282;28;20192;-80
2023/01/31 12:44:15;;;;;;;6.55;1.27;;;23.90;99.90;;;;;;5075148;28;20259;-81
2023/01/31 12:46:58;;;;;;;4.25;1.02;;;23.80;99.90;;;;;;5073440;28;20253;-81
2023/01/31 12:49:46;;;;;;;4.32;1.13;;;23.70;99.90;;;;;;5070656;28;20207;-81
2023/01/31 12:52:28;;;;;;;7.82;1.33;;;23.70;99.90;;;;;;5078370;28;20294;-81
2023/01/31 12:55:22;;;;;;;6.10;1.33;;;23.80;99.90;;;;;;5077495;28;20192;-81
2023/01/31 12:58:15;;;;;;;6.93;1.27;;;23.80;99.90;;;;;;5076709;28;20214;-80
2023/01/31 13:00:51;;;;;;;6.45;1.20;;;23.80;99.90;;;;;;5070936;28;20207;-81
2023/01/31 13:03:38;;;;;;;7.07;1.30;;;23.80;99.90;;;;;;5070690;28;20204;-81
2023/01/31 13:06:14;;;;;;;6.10;1.30;;;23.80;99.90;;;;;;5074632;28;20186;-81
2023/01/31 13:08:51;;;;;;;5.25;1.25;;;23.80;99.90;;;;;;5074077;28;20278;-82
2023/01/31 13:11:28;;;;;;;5.85;1.17;;;23.80;99.90;;;;;;5070435;28;20306;-82
2023/01/31 13:14:02;;;;;;;6.68;1.30;;;23.60;99.90;;;;;;5057516;28;20196;-82
2023/01/31 13:16:35;;;;;;;4.03;1.27;;;23.60;99.90;;;;;;5072249;28;20196;-82
2023/01/31 13:19:08;;;;;;;9.18;1.60;;;23.60;99.90;;;;;;5073180;28;20196;-81
2023/01/31 13:21:45;;;;;;;7.55;1.35;;;23.70;99.90;;;;;;5072900;28;20235;-81
2023/01/31 13:24:19;;;;;;;5.82;1.40;;;23.70;99.90;;;;;;5071946;28;20206;-79
2023/01/31 13:26:56;;;;;;;5.30;1.20;;;23.70;99.90;;;;;;5071501;28;20201;-80
2023/01/31 13:29:30;;;;;;;7.15;1.63;;;23.60;99.90;;;;;;5074189;28;20221;-80
2023/01/31 13:32:05;;;;;;;4.38;1.10;;;23.60;99.90;;;;;;5070973;28;20309;-80
2023/01/31 13:34:43;;;;;;;4.50;1.17;;;23.50;99.90;;;;;;5072061;28;20192;-81
2023/01/31 13:37:19;;;;;;;6.85;1.50;;;23.50;99.90;;;;;;5070249;28;20291;-80